Time;durP1;ratioP1;P1;durP2;ratioP2;P2;SDS_P1;SDS_P2;PMS_P1;PMS_P2;Temp;Humidity;BMP_temperature;BMP_pressure;BME280_temperature;BME280_humidity;BME280_pressure;Samples;Min_cycle;Max_cycle;Signal;HPM_P1;HPM_P2
2023/01/14 00:01:35;;;;;;;7.70;3.37;;;16.20;68.30;17.20;100780.00;;;;5010709;28;20535;-46
2023/01/14 00:04:01;;;;;;;6.60;2.80;;;16.20;68.40;17.20;100774.00;;;;5013490;28;20201;-46
2023/01/14 00:06:33;;;;;;;5.87;3.10;;;16.10;68.20;17.20;100772.00;;;;5012316;28;20267;-45
2023/01/14 00:09:01;;;;;;;5.77;3.20;;;16.10;68.20;17.10;100766.00;;;;5010781;28;20516;-46
2023/01/14 00:14:14;;;;;;;8.07;3.03;;;16.10;68.20;17.10;100759.00;;;;5010621;28;20655;-45
2023/01/14 00:16:39;;;;;;;7.10;3.20;;;16.10;68.10;17.10;100756.00;;;;5010724;28;20219;-45
2023/01/14 00:19:05;;;;;;;6.07;3.13;;;16.10;68.10;17.10;100755.00;;;;5010181;28;20666;-46
2023/01/14 00:21:31;;;;;;;7.47;3.40;;;16.00;68.00;17.10;100744.00;;;;5010838;28;20258;-46
2023/01/14 00:23:56;;;;;;;6.47;3.10;;;16.10;68.20;17.10;100751.00;;;;5010223;28;20200;-46
2023/01/14 00:26:22;;;;;;;6.57;3.20;;;16.00;68.10;17.10;100755.00;;;;5010265;28;20188;-47
2023/01/14 00:28:49;;;;;;;7.87;3.47;;;16.00;68.10;17.10;100753.00;;;;5009607;28;20176;-46
2023/01/14 00:31:20;;;;;;;7.33;3.50;;;16.00;68.10;17.10;100763.00;;;;5010592;28;20179;-47
2023/01/14 00:33:46;;;;;;;7.23;3.47;;;16.00;68.10;17.10;100760.00;;;;5009729;28;20242;-47
2023/01/14 00:36:16;;;;;;;6.37;3.37;;;16.00;68.10;17.00;100768.00;;;;5009283;28;20196;-45
2023/01/14 00:38:43;;;;;;;8.03;3.57;;;16.00;68.20;17.00;100773.00;;;;5009127;28;20561;-46
2023/01/14 00:41:17;;;;;;;7.13;3.30;;;15.90;68.00;17.00;100773.00;;;;5010073;28;20250;-47
2023/01/14 00:43:45;;;;;;;7.50;3.67;;;15.90;68.10;17.00;100780.00;;;;5010097;28;20927;-46
2023/01/14 00:46:39;;;;;;;6.53;3.20;;;15.90;68.10;17.00;100781.00;;;;5010496;28;20196;-46
2023/01/14 00:49:05;;;;;;;7.40;3.30;;;15.90;68.10;17.00;100780.00;;;;5027683;28;20244;-45
2023/01/14 00:51:31;;;;;;;7.57;3.50;;;15.90;68.10;16.90;100787.00;;;;5029074;28;20651;-46
2023/01/14 00:53:58;;;;;;;6.40;3.37;;;15.90;68.00;16.90;100782.00;;;;5029112;28;20171;-47
2023/01/14 00:56:24;;;;;;;6.43;3.30;;;15.80;67.90;16.90;100789.00;;;;5029047;28;20210;-45
2023/01/14 00:58:50;;;;;;;6.33;3.20;;;15.80;67.90;16.90;100793.00;;;;5029044;28;20774;-45
2023/01/14 01:01:16;;;;;;;6.10;3.33;;;15.80;67.90;16.80;100792.00;;;;5028462;28;20179;-45
2023/01/14 01:03:44;;;;;;;5.80;3.30;;;15.80;67.90;16.90;100797.00;;;;5028985;28;20200;-46
2023/01/14 01:06:10;;;;;;;6.23;3.20;;;15.80;67.90;16.90;100799.00;;;;5036761;28;20550;-46
2023/01/14 01:08:36;;;;;;;5.77;3.20;;;15.80;68.00;16.90;100797.00;;;;5038629;28;20171;-45
2023/01/14 01:11:02;;;;;;;7.17;3.10;;;15.70;67.80;16.80;100792.00;;;;5039252;28;20169;-47
2023/01/14 01:13:28;;;;;;;5.33;3.03;;;15.80;67.90;16.90;100796.00;;;;5030105;28;20175;-48
2023/01/14 01:15:58;;;;;;;6.10;3.17;;;15.70;67.90;16.80;100794.00;;;;5029086;28;20178;-49
2023/01/14 01:18:23;;;;;;;7.30;3.93;;;15.70;67.70;16.80;100801.00;;;;5028659;28;20164;-48
2023/01/14 01:20:49;;;;;;;6.50;3.37;;;15.70;67.80;16.80;100802.00;;;;5029208;28;20198;-49
2023/01/14 01:23:15;;;;;;;5.00;3.03;;;15.70;67.70;16.80;100802.00;;;;5029148;28;20191;-48
2023/01/14 01:25:41;;;;;;;5.53;3.10;;;15.70;67.80;16.80;100805.00;;;;5028894;28;20179;-47
2023/01/14 01:28:07;;;;;;;8.03;3.37;;;15.70;67.70;16.80;100805.00;;;;5029027;28;20321;-47
2023/01/14 01:30:32;;;;;;;7.07;3.00;;;15.70;67.70;16.80;100794.00;;;;5028771;28;20171;-47
2023/01/14 01:32:58;;;;;;;6.67;3.20;;;15.70;67.70;16.80;100797.00;;;;5028429;28;20179;-47
2023/01/14 01:35:24;;;;;;;6.40;3.20;;;15.70;67.70;16.70;100795.00;;;;5031053;28;20163;-47
2023/01/14 01:37:51;;;;;;;7.23;3.57;;;15.70;67.60;16.70;100800.00;;;;5040911;28;20195;-47
2023/01/14 01:40:16;;;;;;;6.90;3.60;;;15.70;67.60;16.70;100801.00;;;;5035398;28;20217;-48
2023/01/14 01:42:58;;;;;;;6.10;3.27;;;15.60;67.50;16.70;100808.00;;;;5028444;28;20168;-47
2023/01/14 01:45:48;;;;;;;5.97;3.33;;;15.60;67.40;16.70;100815.00;;;;5029066;28;20499;-47
2023/01/14 01:48:18;;;;;;;6.80;3.33;;;15.60;67.50;16.70;100828.00;;;;5027731;28;20224;-46
2023/01/14 01:51:12;;;;;;;7.93;3.20;;;15.60;67.40;16.70;100823.00;;;;5031451;28;20555;-48
2023/01/14 01:53:41;;;;;;;5.50;3.13;;;15.60;67.40;16.40;100822.00;;;;5025441;28;20559;-47
2023/01/14 01:56:08;;;;;;;6.93;3.47;;;15.60;67.40;16.60;100821.00;;;;5031053;28;20566;-46
2023/01/14 01:58:34;;;;;;;4.87;2.90;;;15.60;67.40;16.50;100823.00;;;;5031564;28;20175;-46
2023/01/14 02:01:00;;;;;;;5.93;3.33;;;15.60;67.50;16.60;100806.00;;;;5031368;28;20251;-47
2023/01/14 02:03:41;;;;;;;6.43;3.13;;;15.60;67.40;16.60;100811.00;;;;5031009;28;20199;-47
2023/01/14 02:06:07;;;;;;;7.00;3.40;;;15.50;67.30;16.60;100805.00;;;;5030460;28;20269;-46
2023/01/14 02:08:33;;;;;;;5.27;3.07;;;15.50;67.30;16.60;100804.00;;;;5032103;28;20210;-47
2023/01/14 02:11:31;;;;;;;6.60;3.73;;;15.50;67.40;16.60;100793.00;;;;5030874;28;20167;-47
2023/01/14 02:15:00;;;;;;;6.23;3.40;;;15.50;67.40;16.60;100809.00;;;;5030818;28;20778;-49
2023/01/14 02:18:32;;;;;;;6.53;3.23;;;15.50;67.40;16.50;100799.00;;;;5019510;28;20211;-46
2023/01/14 02:21:20;;;;;;;6.70;3.30;;;15.50;67.30;16.50;100801.00;;;;5008848;28;20286;-46
2023/01/14 02:24:07;;;;;;;6.10;3.13;;;15.50;67.30;16.50;100792.00;;;;4992944;28;20767;-46
2023/01/14 02:27:18;;;;;;;6.53;3.20;;;15.50;67.30;16.50;100790.00;;;;5030455;28;20211;-46
2023/01/14 02:29:49;;;;;;;5.70;3.30;;;15.50;67.30;16.40;100790.00;;;;5030177;28;20164;-46
2023/01/14 02:32:24;;;;;;;7.17;3.40;;;15.40;67.20;16.40;100789.00;;;;5030090;28;20229;-48
2023/01/14 02:35:31;;;;;;;5.73;3.23;;;15.50;67.30;16.40;100796.00;;;;5031654;28;20175;-46
2023/01/14 02:38:14;;;;;;;8.50;3.57;;;15.40;67.20;16.40;100789.00;;;;5015434;28;20301;-45
2023/01/14 02:41:01;;;;;;;7.10;3.10;;;15.40;67.20;16.40;100781.00;;;;5030384;28;20171;-46
2023/01/14 02:46:41;;;;;;;5.10;3.00;;;15.40;67.20;16.40;100791.00;;;;5029795;28;20198;-47
2023/01/14 02:49:11;;;;;;;6.33;3.50;;;15.40;67.20;16.40;100792.00;;;;5030458;28;20632;-47
2023/01/14 02:51:37;;;;;;;6.80;3.10;;;15.40;67.20;16.40;100785.00;;;;5029652;28;20858;-46
2023/01/14 02:54:02;;;;;;;6.43;3.23;;;15.40;67.20;16.40;100784.00;;;;5030243;28;20231;-46
2023/01/14 02:56:28;;;;;;;6.23;3.00;;;15.30;67.00;16.40;100776.00;;;;5031262;28;20195;-46
2023/01/14 02:59:33;;;;;;;5.87;3.10;;;15.40;67.20;16.40;100771.00;;;;5031629;28;20254;-46
2023/01/14 03:02:27;;;;;;;7.93;3.40;;;15.40;67.20;16.40;100770.00;;;;5007965;28;20187;-47
2023/01/14 03:05:19;;;;;;;5.53;3.13;;;15.30;67.30;16.30;100764.00;;;;5031117;28;20206;-47
2023/01/14 03:08:10;;;;;;;6.73;3.10;;;15.30;68.00;16.30;100756.00;;;;5029905;28;20655;-46
2023/01/14 03:10:42;;;;;;;5.33;2.80;;;15.20;68.50;16.30;100737.00;;;;5029774;28;20178;-48
2023/01/14 03:13:22;;;;;;;7.17;3.10;;;15.20;68.20;16.30;100747.00;;;;5029355;28;20683;-46
2023/01/14 03:15:57;;;;;;;5.47;2.83;;;15.20;68.40;16.30;100729.00;;;;5029569;28;20214;-47
2023/01/14 03:18:28;;;;;;;6.13;3.20;;;15.20;68.60;16.30;100730.00;;;;5029227;28;20181;-47
2023/01/14 03:21:03;;;;;;;5.13;2.80;;;15.20;68.50;16.30;100722.00;;;;5030262;28;20194;-46
2023/01/14 03:23:32;;;;;;;5.97;3.30;;;15.20;68.50;16.30;100717.00;;;;5029880;28;20194;-48
2023/01/14 03:25:58;;;;;;;6.40;3.00;;;15.30;68.60;16.30;100715.00;;;;5030105;28;20278;-47
2023/01/14 03:28:30;;;;;;;5.30;2.83;;;15.20;68.40;16.30;100713.00;;;;5030469;28;20203;-47
2023/01/14 03:30:59;;;;;;;6.13;3.00;;;15.20;68.40;16.30;100713.00;;;;5029720;28;20191;-47
2023/01/14 03:33:30;;;;;;;6.60;3.30;;;15.20;68.00;16.30;100705.00;;;;5028962;28;20183;-46
2023/01/14 03:35:55;;;;;;;6.47;3.10;;;15.20;67.90;16.30;100713.00;;;;5013049;28;20179;-47
2023/01/14 03:38:39;;;;;;;5.57;3.07;;;15.20;67.80;16.30;100713.00;;;;5029213;28;20186;-46
2023/01/14 03:41:05;;;;;;;4.97;2.70;;;15.30;67.90;16.30;100710.00;;;;5029378;28;20824;-48
2023/01/14 03:43:57;;;;;;;4.33;2.53;;;15.20;67.60;16.30;100704.00;;;;5028814;28;20199;-47
2023/01/14 03:46:22;;;;;;;5.63;3.10;;;15.20;67.50;16.20;100709.00;;;;5012022;28;20218;-47
2023/01/14 03:48:48;;;;;;;4.90;2.80;;;15.20;67.50;16.00;100708.00;;;;5030266;28;20208;-47
2023/01/14 03:51:33;;;;;;;5.87;3.00;;;15.20;68.20;16.20;100691.00;;;;5029038;28;20163;-46
2023/01/14 03:54:22;;;;;;;5.47;2.80;;;15.20;67.40;16.20;100687.00;;;;5029048;28;20159;-45
2023/01/14 03:57:10;;;;;;;6.20;3.23;;;15.20;67.40;16.20;100700.00;;;;5029788;28;20569;-46
2023/01/14 04:00:09;;;;;;;4.63;2.67;;;15.20;67.30;16.20;100693.00;;;;5029218;28;20209;-45
2023/01/14 04:02:35;;;;;;;5.57;2.70;;;15.20;67.30;16.20;100693.00;;;;5028488;28;20234;-47
2023/01/14 04:05:01;;;;;;;6.93;3.50;;;15.10;67.20;16.20;100699.00;;;;5028439;28;20203;-48
2023/01/14 04:07:26;;;;;;;6.87;3.23;;;15.10;67.30;16.20;100702.00;;;;5028657;28;20292;-46
2023/01/14 04:09:52;;;;;;;7.60;3.60;;;15.10;67.30;16.20;100697.00;;;;5030039;28;20655;-48
2023/01/14 04:12:18;;;;;;;5.03;2.93;;;15.10;67.20;16.20;100687.00;;;;5030009;28;20173;-46
2023/01/14 04:17:28;;;;;;;6.73;2.80;;;15.10;67.50;16.10;100673.00;;;;5029473;28;20286;-46
2023/01/14 04:19:54;;;;;;;5.23;2.73;;;15.10;67.50;16.10;100680.00;;;;5029700;28;20257;-46
2023/01/14 04:22:20;;;;;;;6.03;3.00;;;15.10;67.50;16.10;100669.00;;;;5035067;28;20735;-49
2023/01/14 04:24:45;;;;;;;6.13;3.00;;;15.10;67.50;16.10;100674.00;;;;5039081;28;20202;-47
2023/01/14 04:27:11;;;;;;;5.90;3.00;;;15.00;67.30;16.10;100660.00;;;;5029706;28;20187;-46
2023/01/14 04:29:37;;;;;;;7.00;3.20;;;15.10;67.60;16.10;100660.00;;;;5029467;28;20171;-47
2023/01/14 04:32:02;;;;;;;5.87;2.80;;;15.10;68.00;16.10;100655.00;;;;5029457;28;20182;-46
2023/01/14 04:34:28;;;;;;;6.10;2.87;;;15.00;67.80;16.10;100646.00;;;;5029789;28;20175;-45
2023/01/14 04:36:54;;;;;;;8.87;3.50;;;15.10;67.60;16.10;100659.00;;;;5029647;28;20191;-47
2023/01/14 04:39:20;;;;;;;6.60;3.23;;;15.00;68.20;16.10;100654.00;;;;5029629;28;20174;-46
2023/01/14 04:44:31;;;;;;;6.53;3.07;;;15.00;67.70;16.10;100647.00;;;;5029240;28;20209;-46
2023/01/14 04:46:56;;;;;;;8.73;3.07;;;15.00;67.90;16.10;100645.00;;;;5029020;28;20190;-47
2023/01/14 04:49:22;;;;;;;6.03;2.90;;;15.00;68.00;16.10;100647.00;;;;5029559;28;20175;-49
2023/01/14 04:51:48;;;;;;;5.93;2.60;;;15.00;68.00;16.10;100639.00;;;;5029570;28;20202;-47
2023/01/14 04:54:14;;;;;;;6.97;2.90;;;15.00;68.00;16.10;100629.00;;;;5029154;28;20210;-46
2023/01/14 04:56:39;;;;;;;6.33;2.87;;;15.00;67.90;16.10;100623.00;;;;5029408;28;20257;-46
2023/01/14 04:59:05;;;;;;;7.43;2.87;;;15.10;68.00;16.10;100609.00;;;;5029631;28;20706;-46
2023/01/14 05:01:31;;;;;;;4.97;3.07;;;15.00;67.80;16.00;100618.00;;;;5029056;28;20217;-45
2023/01/14 05:03:58;;;;;;;5.23;2.90;;;15.00;67.90;16.00;100616.00;;;;5029466;28;20242;-46
2023/01/14 05:06:25;;;;;;;6.17;2.90;;;15.00;67.90;16.00;100610.00;;;;5028902;28;20198;-47
2023/01/14 05:08:51;;;;;;;3.70;2.60;;;15.00;67.90;16.00;100606.00;;;;5029149;28;20175;-45
2023/01/14 05:11:17;;;;;;;4.90;2.70;;;15.00;67.90;16.00;100593.00;;;;5028890;28;20730;-46
2023/01/14 05:13:43;;;;;;;4.47;2.80;;;15.00;67.80;16.00;100596.00;;;;5029147;28;20177;-47
2023/01/14 05:16:09;;;;;;;7.73;2.87;;;15.00;67.80;16.00;100600.00;;;;5029072;28;20694;-46
2023/01/14 05:18:35;;;;;;;5.77;2.60;;;14.90;67.80;16.00;100594.00;;;;5031965;28;20555;-47
2023/01/14 05:21:01;;;;;;;5.53;2.93;;;14.90;67.70;16.00;100586.00;;;;5031252;28;20189;-46
2023/01/14 05:23:26;;;;;;;4.63;2.80;;;14.90;67.70;16.00;100579.00;;;;5034129;28;20198;-46
2023/01/14 05:25:52;;;;;;;5.50;2.87;;;14.90;67.60;16.00;100572.00;;;;5036649;28;20174;-47
2023/01/14 05:28:18;;;;;;;6.20;2.87;;;14.90;67.60;16.00;100574.00;;;;5033391;28;20175;-47
2023/01/14 05:30:44;;;;;;;5.17;2.63;;;15.00;67.80;16.00;100569.00;;;;5032241;28;20511;-46
2023/01/14 05:33:10;;;;;;;5.17;2.83;;;14.90;67.70;16.00;100566.00;;;;5033811;28;20170;-46
2023/01/14 05:35:36;;;;;;;7.37;2.50;;;14.90;67.60;15.90;100563.00;;;;5033387;28;20202;-46
2023/01/14 05:38:03;;;;;;;5.00;2.53;;;14.90;67.80;15.90;100567.00;;;;5032318;28;20226;-46
2023/01/14 05:40:29;;;;;;;4.87;2.60;;;14.90;67.80;15.90;100567.00;;;;5033149;28;20814;-47
2023/01/14 05:45:59;;;;;;;5.90;2.83;;;14.90;67.90;15.90;100561.00;;;;5033071;28;20178;-46
2023/01/14 05:48:25;;;;;;;4.53;2.67;;;14.90;67.90;15.90;100561.00;;;;5033231;28;20636;-46
2023/01/14 05:50:56;;;;;;;6.33;2.83;;;14.90;67.90;15.90;100554.00;;;;5032904;28;20194;-46
2023/01/14 05:53:22;;;;;;;4.87;2.33;;;14.80;67.90;15.90;100546.00;;;;5032823;28;20163;-46
2023/01/14 05:55:48;;;;;;;5.87;2.70;;;14.90;68.00;15.90;100542.00;;;;5032514;28;20193;-47
2023/01/14 05:58:14;;;;;;;8.07;2.70;;;14.90;68.00;15.90;100527.00;;;;5021537;28;20564;-46
2023/01/14 06:06:31;;;;;;;8.13;2.70;;;14.90;68.30;15.90;100516.00;;;;5030916;28;20221;-49
2023/01/14 06:09:05;;;;;;;5.97;2.37;;;14.90;68.30;15.90;100505.00;;;;5015847;28;20548;-46
2023/01/14 06:11:33;;;;;;;3.93;2.50;;;14.80;68.20;15.80;100499.00;;;;5031606;28;20242;-47
2023/01/14 06:14:00;;;;;;;6.43;2.57;;;14.80;69.00;15.80;100500.00;;;;5032136;28;20159;-47
2023/01/14 06:16:27;;;;;;;8.17;2.83;;;14.80;68.10;15.80;100503.00;;;;5032373;28;20284;-47
2023/01/14 06:18:54;;;;;;;5.47;2.70;;;14.80;68.20;15.80;100493.00;;;;5032943;28;20175;-47
2023/01/14 06:21:23;;;;;;;8.20;2.83;;;14.80;68.20;15.80;100491.00;;;;5031615;28;20289;-47
2023/01/14 06:23:49;;;;;;;7.83;2.93;;;14.80;68.40;15.80;100487.00;;;;5030738;28;20203;-46
2023/01/14 06:26:20;;;;;;;6.67;2.60;;;14.80;68.40;15.80;100485.00;;;;5031557;28;20209;-46
2023/01/14 06:28:46;;;;;;;3.27;2.13;;;14.80;68.40;15.80;100469.00;;;;5030663;28;20174;-46
2023/01/14 06:31:16;;;;;;;5.33;2.70;;;14.80;68.40;15.80;100472.00;;;;5030860;28;20164;-46
2023/01/14 06:33:43;;;;;;;6.67;2.60;;;14.70;68.20;15.80;100469.00;;;;5030746;28;20254;-46
2023/01/14 06:36:09;;;;;;;5.20;2.73;;;14.70;68.20;15.80;100461.00;;;;5031086;28;20199;-47
2023/01/14 06:38:35;;;;;;;4.97;2.43;;;14.80;68.20;15.80;100456.00;;;;5031566;28;20171;-47
2023/01/14 06:41:02;;;;;;;5.87;2.30;;;14.80;68.30;15.80;100438.00;;;;5032797;28;20183;-47
2023/01/14 06:43:28;;;;;;;5.63;2.47;;;14.70;68.10;15.80;100449.00;;;;5014580;28;20221;-47
2023/01/14 06:45:54;;;;;;;5.87;2.87;;;14.70;68.10;15.80;100438.00;;;;5031294;28;20167;-46
2023/01/14 06:48:20;;;;;;;6.27;2.70;;;14.70;68.10;15.80;100436.00;;;;5031672;28;20194;-47
2023/01/14 06:50:46;;;;;;;4.67;2.50;;;14.70;68.10;15.80;100413.00;;;;5030394;28;20617;-47
2023/01/14 06:53:12;;;;;;;3.70;2.40;;;14.70;68.10;15.80;100432.00;;;;5030115;28;20237;-47
2023/01/14 06:55:37;;;;;;;3.47;2.13;;;14.70;68.10;15.70;100420.00;;;;5031080;28;20178;-47
2023/01/14 06:58:03;;;;;;;4.60;2.33;;;14.70;68.10;15.80;100414.00;;;;5030790;28;20194;-47
2023/01/14 07:00:29;;;;;;;3.17;2.03;;;14.70;68.10;15.80;100415.00;;;;5030153;28;20205;-46
2023/01/14 07:02:55;;;;;;;4.50;2.40;;;14.70;68.10;15.70;100410.00;;;;5030897;28;20171;-49
2023/01/14 07:05:21;;;;;;;4.47;2.40;;;14.70;68.10;15.70;100404.00;;;;5037168;28;20341;-46
2023/01/14 07:07:47;;;;;;;3.93;2.40;;;14.60;68.10;15.70;100391.00;;;;5042106;28;20694;-47
2023/01/14 07:10:13;;;;;;;5.07;2.50;;;14.70;68.20;15.70;100388.00;;;;5032536;28;20282;-48
2023/01/14 07:12:52;;;;;;;4.77;2.60;;;14.60;68.10;15.70;100399.00;;;;5030710;28;20705;-45
2023/01/14 07:15:19;;;;;;;3.37;2.10;;;14.60;68.10;15.70;100355.00;;;;5030960;28;20228;-46
2023/01/14 07:17:46;;;;;;;4.47;2.10;;;14.60;68.10;15.70;100358.00;;;;5013817;28;20199;-46
2023/01/14 07:20:12;;;;;;;3.40;2.30;;;14.60;68.10;15.70;100345.00;;;;5015561;28;20187;-45
2023/01/14 07:22:37;;;;;;;4.10;2.40;;;14.60;68.00;15.70;100352.00;;;;5029916;28;20182;-45
2023/01/14 07:25:05;;;;;;;3.63;2.37;;;14.60;68.10;15.70;100357.00;;;;5029764;28;20274;-45
2023/01/14 07:27:31;;;;;;;4.07;2.30;;;14.60;68.10;15.70;100358.00;;;;5029393;28;20191;-45
2023/01/14 07:29:57;;;;;;;3.47;2.10;;;14.60;68.10;15.70;100210.00;;;;5030695;28;20171;-46
2023/01/14 07:32:23;;;;;;;3.77;2.30;;;14.60;68.00;15.70;100348.00;;;;5029550;28;20168;-46
2023/01/14 07:34:49;;;;;;;4.77;2.30;;;14.60;68.00;15.70;100352.00;;;;5031299;28;20185;-45
2023/01/14 07:37:15;;;;;;;2.93;2.30;;;14.60;68.10;15.60;100347.00;;;;5030899;28;20201;-45
2023/01/14 07:39:40;;;;;;;4.27;2.03;;;14.60;68.10;15.60;100334.00;;;;5031467;28;20179;-45
2023/01/14 07:42:06;;;;;;;6.13;2.30;;;14.60;68.00;15.60;100335.00;;;;5029856;28;20258;-48
2023/01/14 07:44:32;;;;;;;2.93;2.03;;;14.60;68.00;15.60;100320.00;;;;5032642;28;20878;-45
2023/01/14 07:46:58;;;;;;;2.20;1.83;;;14.50;67.90;15.60;100313.00;;;;5031186;28;20194;-45
2023/01/14 07:49:24;;;;;;;4.60;2.37;;;14.60;68.00;15.60;100310.00;;;;5032157;28;20167;-45
2023/01/14 07:51:50;;;;;;;4.60;2.40;;;14.50;67.90;15.60;100301.00;;;;5028685;28;20723;-45
2023/01/14 07:54:16;;;;;;;2.97;1.90;;;14.50;67.80;15.60;100298.00;;;;5030311;28;20178;-46
2023/01/14 07:56:41;;;;;;;3.07;2.13;;;14.50;67.80;15.60;100299.00;;;;5029164;28;20206;-46
2023/01/14 07:59:07;;;;;;;3.60;2.30;;;14.60;68.00;15.60;100290.00;;;;5029562;28;20171;-46
2023/01/14 08:01:33;;;;;;;3.23;2.30;;;14.50;67.80;15.60;100275.00;;;;5029030;28;20171;-44
2023/01/14 08:03:59;;;;;;;4.10;2.13;;;14.50;67.90;15.60;100262.00;;;;5030395;28;20198;-44
2023/01/14 08:06:24;;;;;;;3.57;2.00;;;14.50;68.10;15.60;100271.00;;;;5029351;28;20256;-44
2023/01/14 08:08:50;;;;;;;3.20;2.17;;;14.50;68.20;15.60;100258.00;;;;5029073;28;20179;-45
2023/01/14 08:11:16;;;;;;;3.30;2.30;;;14.50;68.40;15.60;100264.00;;;;5029540;28;20167;-45
2023/01/14 08:13:42;;;;;;;2.60;1.90;;;14.50;68.10;15.60;100268.00;;;;5030053;28;20163;-45
2023/01/14 08:16:09;;;;;;;4.70;2.40;;;14.50;68.10;15.60;100259.00;;;;5029067;28;20195;-44
2023/01/14 08:18:37;;;;;;;4.60;2.40;;;14.50;68.30;15.60;100255.00;;;;5028924;28;20237;-45
2023/01/14 08:21:06;;;;;;;3.50;2.27;;;14.50;68.60;15.60;100258.00;;;;5030068;28;20722;-45
2023/01/14 08:23:32;;;;;;;3.80;2.27;;;14.50;68.90;15.60;100258.00;;;;5044764;28;20203;-46
2023/01/14 08:26:05;;;;;;;5.47;1.97;;;14.60;69.00;15.60;100249.00;;;;5031729;28;20362;-46
2023/01/14 08:28:32;;;;;;;8.00;2.50;;;14.70;69.10;15.60;100240.00;;;;5012728;28;20233;-45
2023/01/14 08:31:16;;;;;;;4.70;2.30;;;14.80;68.90;15.70;100240.00;;;;5010797;28;20188;-45
2023/01/14 08:33:43;;;;;;;4.47;2.30;;;14.90;68.50;15.70;100224.00;;;;5011064;28;20568;-45
2023/01/14 08:36:15;;;;;;;3.97;2.10;;;15.00;68.30;15.80;100216.00;;;;5008893;28;20214;-45
2023/01/14 08:38:44;;;;;;;3.63;2.23;;;15.10;68.20;15.90;100209.00;;;;5009979;28;20782;-45
2023/01/14 08:41:12;;;;;;;2.97;2.23;;;15.30;68.00;16.00;100209.00;;;;4992818;28;20568;-46
2023/01/14 08:43:38;;;;;;;3.40;2.00;;;15.40;67.80;16.00;100213.00;;;;4992617;28;20215;-46
2023/01/14 08:46:04;;;;;;;2.53;1.97;;;15.60;67.50;16.10;100207.00;;;;4975986;28;20195;-45
2023/01/14 08:48:30;;;;;;;4.33;2.37;;;15.70;67.50;16.20;100210.00;;;;5009569;28;20190;-45
2023/01/14 08:51:05;;;;;;;2.80;2.03;;;15.80;67.20;16.30;100185.00;;;;5010038;28;20178;-46
2023/01/14 08:53:31;;;;;;;4.57;2.30;;;15.90;68.00;16.40;100185.00;;;;5012594;28;20186;-46
2023/01/14 08:55:58;;;;;;;6.90;2.10;;;16.10;67.30;16.50;100177.00;;;;5005381;28;20189;-46
2023/01/14 08:58:24;;;;;;;5.33;2.30;;;16.20;67.30;16.60;100163.00;;;;5008548;28;20248;-45
2023/01/14 09:00:58;;;;;;;7.27;2.20;;;16.30;67.40;16.70;100154.00;;;;5020835;28;20214;-45
2023/01/14 09:03:25;;;;;;;6.40;2.37;;;16.40;67.50;16.80;100127.00;;;;5011677;28;20202;-45
2023/01/14 09:06:01;;;;;;;4.73;2.30;;;16.50;67.50;16.90;100138.00;;;;5027958;28;20176;-47
2023/01/14 09:17:06;;;;;;;30.30;4.30;;;16.90;71.60;17.30;100100.00;;;;5028290;28;20231;-47
2023/01/14 09:19:42;;;;;;;18.73;4.03;;;16.80;81.20;17.20;100093.00;;;;5026601;28;20198;-46
2023/01/14 09:22:09;;;;;;;16.13;3.40;;;16.50;72.30;17.30;100101.00;;;;5025494;28;20209;-46
2023/01/14 09:24:35;;;;;;;18.07;3.20;;;16.50;70.90;17.30;100093.00;;;;5026154;28;20202;-48
2023/01/14 09:27:01;;;;;;;10.50;3.20;;;16.40;70.50;17.30;100082.00;;;;5027117;28;20204;-47
2023/01/14 09:29:27;;;;;;;13.63;3.80;;;16.50;70.50;17.30;100078.00;;;;5028525;28;20164;-46
2023/01/14 09:31:52;;;;;;;14.90;3.37;;;16.50;70.10;17.30;100067.00;;;;5033387;28;20167;-46
2023/01/14 09:34:18;;;;;;;16.50;3.43;;;16.50;69.90;17.40;100064.00;;;;5036936;28;20183;-47
2023/01/14 09:36:44;;;;;;;13.30;3.50;;;16.50;69.80;17.40;100060.00;;;;5037454;28;20314;-47
2023/01/14 09:39:10;;;;;;;14.10;3.20;;;16.50;69.60;17.40;100063.00;;;;5033338;28;20206;-46
2023/01/14 09:41:40;;;;;;;12.87;3.63;;;16.50;69.50;17.40;100052.00;;;;5029312;28;20179;-46
2023/01/14 09:44:06;;;;;;;17.73;3.83;;;16.50;69.40;17.40;100052.00;;;;5028374;28;20749;-47
2023/01/14 09:46:32;;;;;;;20.07;4.00;;;16.50;69.20;17.40;100059.00;;;;5028950;28;20279;-47
2023/01/14 09:49:00;;;;;;;21.17;4.03;;;16.50;69.20;17.40;100032.00;;;;5027616;28;20209;-46
2023/01/14 09:51:43;;;;;;;13.47;3.50;;;16.50;69.40;17.40;100043.00;;;;5029746;28;20175;-45
2023/01/14 09:54:33;;;;;;;19.70;4.33;;;16.50;69.80;17.40;100031.00;;;;5048809;28;20583;-46
2023/01/14 09:57:15;;;;;;;21.57;4.20;;;16.50;69.90;17.40;100017.00;;;;5029538;28;20196;-46
2023/01/14 10:00:04;;;;;;;20.83;4.03;;;16.50;70.00;17.40;100002.00;;;;5028034;28;20164;-48
2023/01/14 10:02:44;;;;;;;12.13;3.70;;;16.50;69.90;17.40;100000.00;;;;5027534;28;20234;-46
2023/01/14 10:05:21;;;;;;;14.27;3.67;;;16.50;69.90;17.40;99974.00;;;;5027992;28;20783;-46
2023/01/14 10:07:47;;;;;;;14.13;3.87;;;16.50;69.90;17.40;99969.00;;;;5028108;28;20184;-46
2023/01/14 10:10:26;;;;;;;25.70;4.40;;;16.50;69.90;17.40;99968.00;;;;5030320;28;20182;-46
2023/01/14 10:12:53;;;;;;;17.27;3.70;;;16.50;69.90;17.40;99956.00;;;;5014313;28;20658;-46
2023/01/14 10:15:19;;;;;;;16.00;4.03;;;16.50;69.80;17.40;99948.00;;;;5031428;28;20187;-46
2023/01/14 10:17:50;;;;;;;16.40;3.90;;;16.60;69.80;17.40;99939.00;;;;5032922;28;20214;-47
2023/01/14 10:20:20;;;;;;;14.57;3.50;;;16.60;69.80;17.40;99941.00;;;;5031655;28;20186;-47
2023/01/14 10:22:50;;;;;;;16.30;3.80;;;16.50;69.60;17.40;99932.00;;;;5031132;28;20182;-46
2023/01/14 10:25:21;;;;;;;12.40;3.50;;;16.50;69.70;17.40;99917.00;;;;5030806;28;20245;-46
2023/01/14 10:27:55;;;;;;;12.00;3.40;;;16.60;69.70;17.30;99923.00;;;;5031821;28;20203;-46
2023/01/14 10:30:25;;;;;;;14.90;3.17;;;16.50;69.50;17.40;99906.00;;;;5030875;28;20237;-46
2023/01/14 10:32:51;;;;;;;11.63;3.47;;;16.50;69.40;17.30;99906.00;;;;5030329;28;20188;-46
2023/01/14 10:35:27;;;;;;;9.77;3.40;;;16.50;69.40;17.30;99911.00;;;;5031603;28;20189;-46
2023/01/14 10:37:52;;;;;;;11.77;3.23;;;16.50;69.30;17.30;99910.00;;;;5030513;28;20202;-46
2023/01/14 10:40:22;;;;;;;12.30;3.60;;;16.50;69.20;17.30;99893.00;;;;5032119;28;20172;-47
2023/01/14 10:42:49;;;;;;;12.03;3.30;;;16.50;69.20;17.30;99908.00;;;;5029986;28;20646;-46
2023/01/14 10:45:15;;;;;;;11.73;3.40;;;16.40;69.10;17.30;99887.00;;;;5032279;28;20199;-45
2023/01/14 10:47:40;;;;;;;8.70;3.00;;;16.40;69.00;17.20;99880.00;;;;5030084;28;20725;-46
2023/01/14 10:50:25;;;;;;;11.43;3.10;;;16.40;68.90;17.20;99872.00;;;;5030364;28;20178;-46
2023/01/14 10:52:52;;;;;;;11.77;3.40;;;16.40;68.80;17.00;99861.00;;;;5030502;28;20173;-46
2023/01/14 10:55:21;;;;;;;15.27;3.63;;;16.40;68.80;17.20;99855.00;;;;5023126;28;20193;-47
2023/01/14 10:58:00;;;;;;;8.87;3.10;;;16.40;68.80;17.20;99857.00;;;;5019031;28;20218;-53
2023/01/14 11:00:44;;;;;;;13.00;3.60;;;16.40;68.80;17.20;99846.00;;;;5013779;28;20659;-46
2023/01/14 11:03:19;;;;;;;16.50;3.70;;;16.40;68.90;17.10;99851.00;;;;4999207;28;20166;-46
2023/01/14 11:05:44;;;;;;;11.77;3.67;;;16.40;69.40;17.20;99854.00;;;;5012712;28;20265;-46
2023/01/14 11:08:35;;;;;;;15.07;3.80;;;16.40;69.80;17.10;99857.00;;;;4995793;28;20259;-45
2023/01/14 11:11:07;;;;;;;16.20;3.60;;;16.40;70.20;17.10;99844.00;;;;5022321;28;20750;-46
2023/01/14 11:13:36;;;;;;;13.20;3.80;;;16.40;70.50;17.10;99839.00;;;;5011423;28;20187;-45
2023/01/14 11:16:02;;;;;;;8.93;3.50;;;16.40;70.40;17.10;99826.00;;;;5022945;28;20217;-47
2023/01/14 11:18:30;;;;;;;14.93;4.10;;;16.40;70.30;17.10;99817.00;;;;5008289;28;20222;-46
2023/01/14 11:21:06;;;;;;;16.37;3.60;;;16.40;70.30;17.10;99803.00;;;;5009441;28;20684;-47
2023/01/14 11:23:37;;;;;;;13.67;3.87;;;16.40;70.20;17.10;99787.00;;;;5005086;28;20775;-47
2023/01/14 11:26:28;;;;;;;18.23;3.40;;;16.40;70.10;17.10;99790.00;;;;4980986;28;20201;-47
2023/01/14 11:29:21;;;;;;;12.10;3.70;;;16.40;70.00;17.10;99786.00;;;;5030074;28;20167;-47
2023/01/14 11:31:48;;;;;;;13.83;3.53;;;16.40;70.10;17.10;99775.00;;;;5032324;28;20218;-46